»·PEaware :: N177BE KGEG-KGPI

N177BE :: KGEG-KGPI

FLIGHT INFORMATION

Flight Status: Arrived
Operator: Privately registered:
United States
More flights under this callsign
Pilot: Johnny M. (33920)
Aircraft: CESSNA 172 SKYHAWK
(C172)
More flights by this aircraft type
Origin: KGEG Spokane Intl
United States
Destination: KGPI Glacier Park Intl
United States
More flights between these airports :: More routes between these airports
Route:
File this flight plan on PilotEdge
Remarks:
Altitude:
(Current/Filed)
0ft
Speed:
(Current/Filed)
0kts
Departed: 22-Feb-21 04:08 PM
Arrived: 22-Feb-21 05:29 PM
Distance/Time
Traveled:
137nm/1:21
Distance/Time
To Go:
Arrived

Flight Plot

Page will automatically refresh every two minutes.

Flight plan parsing failed; only flown route is shown


Map Options




Map Legend


Flown Route
Filed Route
Departure Airport
Arrival Airport
Navaid (VOR, NDB)
Fix

Horizontal Profiles

Position Reports

Time Latitude Longitude Heading Altitude Ground
Speed
22-Feb-21 15:59 47.621267 -117.524160 269 2358ft 0kts
22-Feb-21 16:00 47.621267 -117.524160 269 2358ft 0kts
22-Feb-21 16:01 47.621249 -117.526184 264 2358ft 14kts
22-Feb-21 16:02 47.623376 -117.526594 43 2353ft 24kts
22-Feb-21 16:03 47.627802 -117.519954 43 2338ft 23kts
22-Feb-21 16:04 47.630555 -117.517513 313 2323ft 0kts
22-Feb-21 16:05 47.630555 -117.517513 313 2323ft 0kts
22-Feb-21 16:06 47.630555 -117.517513 313 2323ft 0kts
22-Feb-21 16:07 47.623900 -117.529490 228 2582ft 85kts
22-Feb-21 16:08 47.604942 -117.555096 218 3425ft 102kts
22-Feb-21 16:09 47.579957 -117.570970 188 4331ft 102kts
22-Feb-21 16:10 47.572294 -117.542666 29 5090ft 100kts
22-Feb-21 16:11 47.577497 -117.505765 109 5853ft 103kts
22-Feb-21 16:12 47.571716 -117.465484 73 6590ft 102kts
22-Feb-21 16:13 47.579676 -117.425153 74 7297ft 101kts
22-Feb-21 16:14 47.586127 -117.384230 78 7936ft 102kts
22-Feb-21 16:15 47.591084 -117.342273 74 8513ft 104kts
22-Feb-21 16:16 47.597040 -117.300305 80 9048ft 104kts
22-Feb-21 16:17 47.600333 -117.257156 81 9534ft 106kts
22-Feb-21 16:18 47.605297 -117.214178 63 9960ft 108kts
22-Feb-21 16:20 47.619937 -117.172193 63 10148ft 116kts
22-Feb-21 16:21 47.634821 -117.128529 62 10282ft 119kts
22-Feb-21 16:22 47.649955 -117.084546 62 10420ft 120kts
22-Feb-21 16:23 47.665210 -117.040452 62 10528ft 121kts
22-Feb-21 16:24 47.680690 -116.995926 62 10612ft 121kts
22-Feb-21 16:25 47.696268 -116.951327 62 10685ft 121kts
22-Feb-21 16:26 47.711952 -116.906640 61 10754ft 122kts
22-Feb-21 16:27 47.727803 -116.861677 61 10790ft 123kts
22-Feb-21 16:28 47.743748 -116.816722 61 10826ft 123kts
22-Feb-21 16:29 47.758851 -116.771002 65 10849ft 124kts
22-Feb-21 16:30 47.772894 -116.724429 65 10881ft 123kts
22-Feb-21 16:31 47.786974 -116.678080 65 10937ft 122kts
22-Feb-21 16:32 47.801064 -116.632071 64 10995ft 122kts
22-Feb-21 16:33 47.813585 -116.584860 72 11048ft 122kts
22-Feb-21 16:34 47.823726 -116.536526 71 11100ft 122kts
22-Feb-21 16:35 47.834023 -116.487975 71 11154ft 122kts
22-Feb-21 16:36 47.844376 -116.439672 71 11206ft 122kts
22-Feb-21 16:37 47.854880 -116.391143 71 11230ft 123kts
22-Feb-21 16:38 47.865546 -116.342310 71 11249ft 123kts
22-Feb-21 16:39 47.876256 -116.293710 71 11270ft 123kts
22-Feb-21 16:40 47.887067 -116.245097 71 11284ft 124kts
22-Feb-21 16:40 47.896155 -116.204530 71 11296ft 124kts
22-Feb-21 16:42 47.909007 -116.147657 71 11315ft 124kts
22-Feb-21 16:43 47.920112 -116.099050 71 11331ft 123kts
22-Feb-21 16:44 47.931322 -116.050548 70 11337ft 124kts
22-Feb-21 16:44 47.940807 -116.009911 70 11337ft 124kts
22-Feb-21 16:46 47.954244 -115.952918 70 11318ft 125kts
22-Feb-21 16:46 47.963922 -115.912249 70 11313ft 124kts
22-Feb-21 16:47 47.975602 -115.863558 70 11303ft 125kts
22-Feb-21 16:49 47.989348 -115.806797 70 11306ft 124kts
22-Feb-21 16:49 47.999205 -115.766407 69 11316ft 124kts
22-Feb-21 16:50 48.011071 -115.718103 69 11328ft 124kts
22-Feb-21 16:51 48.023061 -115.669662 69 11340ft 124kts
22-Feb-21 16:52 48.035098 -115.621399 69 11349ft 124kts
22-Feb-21 16:53 48.047193 -115.573252 69 11364ft 124kts
22-Feb-21 16:54 48.059416 -115.524973 68 11375ft 124kts
22-Feb-21 16:55 48.071387 -115.476656 71 11393ft 123kts
22-Feb-21 16:56 48.082081 -115.428260 71 11443ft 123kts
22-Feb-21 16:57 48.092909 -115.379664 71 11481ft 123kts
22-Feb-21 16:58 48.103807 -115.331160 71 11516ft 123kts
22-Feb-21 16:59 48.114816 -115.282568 71 11532ft 124kts
22-Feb-21 17:00 48.125756 -115.233530 75 11536ft 124kts
22-Feb-21 17:01 48.136407 -115.184339 72 11542ft 124kts
22-Feb-21 17:02 48.147245 -115.134970 71 11527ft 124kts
22-Feb-21 17:03 48.158173 -115.085588 71 11514ft 125kts
22-Feb-21 17:04 48.169171 -115.036293 71 11503ft 124kts
22-Feb-21 17:05 48.180230 -114.987125 71 11503ft 124kts
22-Feb-21 17:06 48.191393 -114.937917 71 11500ft 124kts
22-Feb-21 17:07 48.203765 -114.889541 68 11506ft 124kts
22-Feb-21 17:08 48.216349 -114.841541 68 11510ft 119kts
22-Feb-21 17:09 48.228137 -114.796871 68 11092ft 114kts
22-Feb-21 17:10 48.239815 -114.752802 68 10629ft 111kts
22-Feb-21 17:11 48.251236 -114.710041 68 9978ft 110kts
22-Feb-21 17:12 48.262591 -114.667523 67 9385ft 110kts
22-Feb-21 17:13 48.274080 -114.625330 67 8956ft 106kts
22-Feb-21 17:14 48.285300 -114.584527 68 8532ft 105kts
22-Feb-21 17:15 48.290983 -114.542790 97 7683ft 101kts
22-Feb-21 17:16 48.293763 -114.498084 76 7742ft 112kts
22-Feb-21 17:17 48.303732 -114.449559 43 7333ft 128kts
22-Feb-21 17:18 48.331506 -114.418752 22 6402ft 132kts
22-Feb-21 17:19 48.363735 -114.395943 27 5567ft 130kts
22-Feb-21 17:20 48.395604 -114.370685 32 4914ft 128kts
22-Feb-21 17:21 48.419406 -114.334702 67 4050ft 118kts
22-Feb-21 17:22 48.420606 -114.288746 106 4316ft 111kts
22-Feb-21 17:23 48.403692 -114.249156 131 4525ft 116kts
22-Feb-21 17:24 48.379140 -114.221020 153 4232ft 103kts
22-Feb-21 17:25 48.351765 -114.212949 203 3864ft 113kts
22-Feb-21 17:26 48.329684 -114.235487 211 3289ft 84kts
22-Feb-21 17:27 48.313192 -114.252602 213 2970ft 52kts
22-Feb-21 17:28 48.310920 -114.253519 148 2968ft 0kts
22-Feb-21 17:29 48.310034 -114.253907 213 2967ft 19kts
22-Feb-21 17:30 48.304073 -114.260098 212 2963ft 29kts
22-Feb-21 17:31 48.298461 -114.266152 248 2960ft 6kts

Navigation Log

Ident Type
Flight plan parsing failed, navigation log unavailable